sensor_id;sensor_type;location;lat;lon;timestamp;temperature;humidity
52867;DHT22;38739;53.324;6.862;2023-04-12T00:00:34;5.90;99.90
52867;DHT22;38739;53.324;6.862;2023-04-12T00:03:03;5.90;99.90
52867;DHT22;38739;53.324;6.862;2023-04-12T00:05:29;5.90;99.90
52867;DHT22;38739;53.324;6.862;2023-04-12T00:07:55;6.00;99.90
52867;DHT22;38739;53.324;6.862;2023-04-12T00:10:21;5.90;99.90
52867;DHT22;38739;53.324;6.862;2023-04-12T00:12:47;5.90;99.90
52867;DHT22;38739;53.324;6.862;2023-04-12T00:15:14;6.00;99.90
52867;DHT22;38739;53.324;6.862;2023-04-12T00:17:40;6.00;99.90
52867;DHT22;38739;53.324;6.862;2023-04-12T00:20:07;6.00;99.90
52867;DHT22;38739;53.324;6.862;2023-04-12T00:22:40;6.00;99.90
52867;DHT22;38739;53.324;6.862;2023-04-12T00:25:06;6.00;99.90
52867;DHT22;38739;53.324;6.862;2023-04-12T00:27:32;6.10;99.90
52867;DHT22;38739;53.324;6.862;2023-04-12T00:29:58;6.10;99.90
52867;DHT22;38739;53.324;6.862;2023-04-12T00:32:23;6.10;99.90
52867;DHT22;38739;53.324;6.862;2023-04-12T00:34:50;6.10;99.90
52867;DHT22;38739;53.324;6.862;2023-04-12T00:37:16;6.20;99.90
52867;DHT22;38739;53.324;6.862;2023-04-12T00:39:41;6.20;99.90
52867;DHT22;38739;53.324;6.862;2023-04-12T00:42:07;6.20;99.90
52867;DHT22;38739;53.324;6.862;2023-04-12T00:44:33;6.30;99.90
52867;DHT22;38739;53.324;6.862;2023-04-12T00:47:00;6.30;99.90
52867;DHT22;38739;53.324;6.862;2023-04-12T00:49:28;6.30;99.90
52867;DHT22;38739;53.324;6.862;2023-04-12T00:52:04;6.40;99.90
52867;DHT22;38739;53.324;6.862;2023-04-12T00:54:32;6.40;99.90
52867;DHT22;38739;53.324;6.862;2023-04-12T00:56:59;6.40;99.90
52867;DHT22;38739;53.324;6.862;2023-04-12T00:59:25;6.40;99.90
52867;DHT22;38739;53.324;6.862;2023-04-12T01:01:53;6.50;99.90
52867;DHT22;38739;53.324;6.862;2023-04-12T01:04:19;6.50;99.90
52867;DHT22;38739;53.324;6.862;2023-04-12T01:15:01;6.60;99.90
52867;DHT22;38739;53.324;6.862;2023-04-12T01:17:32;6.60;99.90
52867;DHT22;38739;53.324;6.862;2023-04-12T01:20:08;6.60;99.90
52867;DHT22;38739;53.324;6.862;2023-04-12T01:25:35;6.60;99.90
52867;DHT22;38739;53.324;6.862;2023-04-12T01:28:04;6.60;99.90
52867;DHT22;38739;53.324;6.862;2023-04-12T01:30:31;6.70;99.90
52867;DHT22;38739;53.324;6.862;2023-04-12T01:32:59;6.70;99.90
52867;DHT22;38739;53.324;6.862;2023-04-12T01:35:31;6.70;99.90
52867;DHT22;38739;53.324;6.862;2023-04-12T01:37:58;6.70;99.90
52867;DHT22;38739;53.324;6.862;2023-04-12T01:40:28;6.70;99.90
52867;DHT22;38739;53.324;6.862;2023-04-12T01:43:13;6.80;99.90
52867;DHT22;38739;53.324;6.862;2023-04-12T01:45:41;6.80;99.90
52867;DHT22;38739;53.324;6.862;2023-04-12T01:48:09;6.80;99.90
52867;DHT22;38739;53.324;6.862;2023-04-12T01:55:56;6.80;99.90
52867;DHT22;38739;53.324;6.862;2023-04-12T01:58:24;6.80;99.90
52867;DHT22;38739;53.324;6.862;2023-04-12T02:00:50;6.80;99.90
52867;DHT22;38739;53.324;6.862;2023-04-12T02:03:19;6.80;99.90
52867;DHT22;38739;53.324;6.862;2023-04-12T02:05:50;6.80;99.90
52867;DHT22;38739;53.324;6.862;2023-04-12T02:08:16;6.80;99.90
52867;DHT22;38739;53.324;6.862;2023-04-12T02:10:42;6.90;99.90
52867;DHT22;38739;53.324;6.862;2023-04-12T02:13:08;6.90;99.90
52867;DHT22;38739;53.324;6.862;2023-04-12T02:15:33;7.00;99.90
52867;DHT22;38739;53.324;6.862;2023-04-12T02:18:01;7.00;99.90
52867;DHT22;38739;53.324;6.862;2023-04-12T02:20:27;7.00;99.90
52867;DHT22;38739;53.324;6.862;2023-04-12T02:22:53;7.00;99.90
52867;DHT22;38739;53.324;6.862;2023-04-12T02:25:19;7.00;99.90
52867;DHT22;38739;53.324;6.862;2023-04-12T02:27:45;7.00;99.90
52867;DHT22;38739;53.324;6.862;2023-04-12T02:30:12;7.00;99.90
52867;DHT22;38739;53.324;6.862;2023-04-12T02:32:38;7.10;99.90
52867;DHT22;38739;53.324;6.862;2023-04-12T02:35:11;7.10;99.90
52867;DHT22;38739;53.324;6.862;2023-04-12T02:37:37;7.10;99.90
52867;DHT22;38739;53.324;6.862;2023-04-12T02:40:05;7.10;99.90
52867;DHT22;38739;53.324;6.862;2023-04-12T02:42:32;7.10;99.90
52867;DHT22;38739;53.324;6.862;2023-04-12T02:44:57;7.10;99.90
52867;DHT22;38739;53.324;6.862;2023-04-12T02:47:23;7.10;99.90
52867;DHT22;38739;53.324;6.862;2023-04-12T02:49:53;7.10;99.90
52867;DHT22;38739;53.324;6.862;2023-04-12T02:52:19;7.10;99.90
52867;DHT22;38739;53.324;6.862;2023-04-12T02:54:45;7.10;99.90
52867;DHT22;38739;53.324;6.862;2023-04-12T02:57:11;7.10;99.90
52867;DHT22;38739;53.324;6.862;2023-04-12T02:59:38;7.10;99.90
52867;DHT22;38739;53.324;6.862;2023-04-12T03:02:03;7.10;99.90
52867;DHT22;38739;53.324;6.862;2023-04-12T03:04:29;7.10;99.90
52867;DHT22;38739;53.324;6.862;2023-04-12T03:06:55;7.10;99.90
52867;DHT22;38739;53.324;6.862;2023-04-12T03:09:21;7.10;99.90
52867;DHT22;38739;53.324;6.862;2023-04-12T03:11:47;7.10;99.90
52867;DHT22;38739;53.324;6.862;2023-04-12T03:14:13;7.10;99.90
52867;DHT22;38739;53.324;6.862;2023-04-12T03:16:39;7.20;99.90
52867;DHT22;38739;53.324;6.862;2023-04-12T03:19:04;7.20;99.90
52867;DHT22;38739;53.324;6.862;2023-04-12T03:21:31;7.20;99.90
52867;DHT22;38739;53.324;6.862;2023-04-12T03:24:00;7.20;99.90
52867;DHT22;38739;53.324;6.862;2023-04-12T03:26:26;7.20;99.90
52867;DHT22;38739;53.324;6.862;2023-04-12T03:29:01;7.10;99.90
52867;DHT22;38739;53.324;6.862;2023-04-12T03:31:29;7.20;99.90
52867;DHT22;38739;53.324;6.862;2023-04-12T03:33:56;7.20;99.90
52867;DHT22;38739;53.324;6.862;2023-04-12T03:36:22;7.20;99.90
52867;DHT22;38739;53.324;6.862;2023-04-12T03:38:48;7.20;99.90
52867;DHT22;38739;53.324;6.862;2023-04-12T03:41:14;7.20;99.90
52867;DHT22;38739;53.324;6.862;2023-04-12T03:43:40;7.20;99.90
52867;DHT22;38739;53.324;6.862;2023-04-12T03:46:07;7.20;99.90
52867;DHT22;38739;53.324;6.862;2023-04-12T03:48:33;7.20;99.90
52867;DHT22;38739;53.324;6.862;2023-04-12T03:50:59;7.20;99.90
52867;DHT22;38739;53.324;6.862;2023-04-12T03:53:33;7.20;99.90
52867;DHT22;38739;53.324;6.862;2023-04-12T03:55:59;7.20;99.90
52867;DHT22;38739;53.324;6.862;2023-04-12T03:58:25;7.30;99.90
52867;DHT22;38739;53.324;6.862;2023-04-12T04:00:50;7.30;99.90
52867;DHT22;38739;53.324;6.862;2023-04-12T04:03:17;7.30;99.90
52867;DHT22;38739;53.324;6.862;2023-04-12T04:05:43;7.30;99.90
52867;DHT22;38739;53.324;6.862;2023-04-12T04:08:09;7.30;99.90
52867;DHT22;38739;53.324;6.862;2023-04-12T04:10:35;7.30;99.90
52867;DHT22;38739;53.324;6.862;2023-04-12T04:13:00;7.30;99.90
52867;DHT22;38739;53.324;6.862;2023-04-12T04:15:26;7.30;99.90
52867;DHT22;38739;53.324;6.862;2023-04-12T04:17:52;7.30;99.90
52867;DHT22;38739;53.324;6.862;2023-04-12T04:20:19;7.40;99.90
52867;DHT22;38739;53.324;6.862;2023-04-12T04:22:45;7.40;99.90
52867;DHT22;38739;53.324;6.862;2023-04-12T04:25:15;7.40;99.90
52867;DHT22;38739;53.324;6.862;2023-04-12T04:27:41;7.30;99.90
52867;DHT22;38739;53.324;6.862;2023-04-12T04:30:10;7.40;99.90
52867;DHT22;38739;53.324;6.862;2023-04-12T04:32:37;7.40;99.90
52867;DHT22;38739;53.324;6.862;2023-04-12T04:35:03;7.40;99.90
52867;DHT22;38739;53.324;6.862;2023-04-12T04:37:30;7.40;99.90
52867;DHT22;38739;53.324;6.862;2023-04-12T04:39:56;7.40;99.90
52867;DHT22;38739;53.324;6.862;2023-04-12T04:42:22;7.40;99.90
52867;DHT22;38739;53.324;6.862;2023-04-12T04:44:48;7.30;99.90
52867;DHT22;38739;53.324;6.862;2023-04-12T04:47:24;7.30;99.90
52867;DHT22;38739;53.324;6.862;2023-04-12T04:49:50;7.30;99.90
52867;DHT22;38739;53.324;6.862;2023-04-12T04:52:16;7.30;99.90
52867;DHT22;38739;53.324;6.862;2023-04-12T04:54:42;7.30;99.90
52867;DHT22;38739;53.324;6.862;2023-04-12T04:57:08;7.30;99.90
52867;DHT22;38739;53.324;6.862;2023-04-12T04:59:36;7.30;99.90
52867;DHT22;38739;53.324;6.862;2023-04-12T05:02:02;7.30;99.90
52867;DHT22;38739;53.324;6.862;2023-04-12T05:04:28;7.30;99.90
52867;DHT22;38739;53.324;6.862;2023-04-12T05:06:53;7.30;99.90
52867;DHT22;38739;53.324;6.862;2023-04-12T05:09:19;7.30;99.90
52867;DHT22;38739;53.324;6.862;2023-04-12T05:11:45;7.30;99.90
52867;DHT22;38739;53.324;6.862;2023-04-12T05:14:11;7.30;99.90
52867;DHT22;38739;53.324;6.862;2023-04-12T05:16:36;7.30;99.90
52867;DHT22;38739;53.324;6.862;2023-04-12T05:19:02;7.20;99.90
52867;DHT22;38739;53.324;6.862;2023-04-12T05:21:28;7.20;99.90
52867;DHT22;38739;53.324;6.862;2023-04-12T05:23:53;7.20;99.90
52867;DHT22;38739;53.324;6.862;2023-04-12T05:26:19;7.20;99.90
52867;DHT22;38739;53.324;6.862;2023-04-12T05:28:46;7.20;99.90
52867;DHT22;38739;53.324;6.862;2023-04-12T05:31:12;7.20;99.90
52867;DHT22;38739;53.324;6.862;2023-04-12T05:33:37;7.20;99.90
52867;DHT22;38739;53.324;6.862;2023-04-12T05:36:04;7.20;99.90
52867;DHT22;38739;53.324;6.862;2023-04-12T05:38:30;7.20;99.90
52867;DHT22;38739;53.324;6.862;2023-04-12T05:40:55;7.20;99.90
52867;DHT22;38739;53.324;6.862;2023-04-12T05:43:21;7.20;99.90
52867;DHT22;38739;53.324;6.862;2023-04-12T05:45:49;7.20;99.90
52867;DHT22;38739;53.324;6.862;2023-04-12T05:48:15;7.20;99.90
52867;DHT22;38739;53.324;6.862;2023-04-12T05:50:41;7.20;99.90
52867;DHT22;38739;53.324;6.862;2023-04-12T05:53:14;7.20;99.90
52867;DHT22;38739;53.324;6.862;2023-04-12T05:55:40;7.20;99.90
52867;DHT22;38739;53.324;6.862;2023-04-12T05:58:05;7.20;99.90
52867;DHT22;38739;53.324;6.862;2023-04-12T06:00:31;7.20;99.90
52867;DHT22;38739;53.324;6.862;2023-04-12T06:02:57;7.20;99.90
52867;DHT22;38739;53.324;6.862;2023-04-12T06:05:23;7.20;99.90
52867;DHT22;38739;53.324;6.862;2023-04-12T06:07:49;7.20;99.90
52867;DHT22;38739;53.324;6.862;2023-04-12T06:10:15;7.30;99.90
52867;DHT22;38739;53.324;6.862;2023-04-12T06:12:42;7.30;99.90
52867;DHT22;38739;53.324;6.862;2023-04-12T06:15:08;7.30;99.90
52867;DHT22;38739;53.324;6.862;2023-04-12T06:17:34;7.30;99.90
52867;DHT22;38739;53.324;6.862;2023-04-12T06:20:01;7.30;99.90
52867;DHT22;38739;53.324;6.862;2023-04-12T06:22:27;7.30;99.90
52867;DHT22;38739;53.324;6.862;2023-04-12T06:24:53;7.30;99.90
52867;DHT22;38739;53.324;6.862;2023-04-12T06:27:18;7.30;99.90
52867;DHT22;38739;53.324;6.862;2023-04-12T06:29:45;7.40;99.90
52867;DHT22;38739;53.324;6.862;2023-04-12T06:32:11;7.40;99.90
52867;DHT22;38739;53.324;6.862;2023-04-12T06:34:36;7.40;99.90
52867;DHT22;38739;53.324;6.862;2023-04-12T06:37:02;7.40;99.90
52867;DHT22;38739;53.324;6.862;2023-04-12T06:39:28;7.30;99.90
52867;DHT22;38739;53.324;6.862;2023-04-12T06:41:53;7.40;99.90
52867;DHT22;38739;53.324;6.862;2023-04-12T06:44:22;7.30;99.90
52867;DHT22;38739;53.324;6.862;2023-04-12T06:46:47;7.40;99.90
52867;DHT22;38739;53.324;6.862;2023-04-12T06:49:13;7.40;99.90
52867;DHT22;38739;53.324;6.862;2023-04-12T06:51:39;7.30;99.90
52867;DHT22;38739;53.324;6.862;2023-04-12T06:54:04;7.40;99.90
52867;DHT22;38739;53.324;6.862;2023-04-12T06:56:30;7.30;99.90
52867;DHT22;38739;53.324;6.862;2023-04-12T06:58:56;7.30;99.90
52867;DHT22;38739;53.324;6.862;2023-04-12T07:01:23;7.30;99.90
52867;DHT22;38739;53.324;6.862;2023-04-12T07:03:48;7.40;99.90
52867;DHT22;38739;53.324;6.862;2023-04-12T07:06:14;7.40;99.90
52867;DHT22;38739;53.324;6.862;2023-04-12T07:08:40;7.40;99.90
52867;DHT22;38739;53.324;6.862;2023-04-12T07:11:05;7.40;99.90
52867;DHT22;38739;53.324;6.862;2023-04-12T07:13:31;7.40;99.90
52867;DHT22;38739;53.324;6.862;2023-04-12T07:15:57;7.40;99.90
52867;DHT22;38739;53.324;6.862;2023-04-12T07:18:23;7.50;99.90
52867;DHT22;38739;53.324;6.862;2023-04-12T07:20:51;7.50;99.90
52867;DHT22;38739;53.324;6.862;2023-04-12T07:23:26;7.50;99.90
52867;DHT22;38739;53.324;6.862;2023-04-12T07:25:52;7.50;99.90
52867;DHT22;38739;53.324;6.862;2023-04-12T07:28:18;7.50;99.90
52867;DHT22;38739;53.324;6.862;2023-04-12T07:30:45;7.50;99.90
52867;DHT22;38739;53.324;6.862;2023-04-12T07:33:11;7.50;99.90
52867;DHT22;38739;53.324;6.862;2023-04-12T07:35:36;7.50;99.90
52867;DHT22;38739;53.324;6.862;2023-04-12T07:38:02;7.50;99.90
52867;DHT22;38739;53.324;6.862;2023-04-12T07:40:28;7.50;99.90
52867;DHT22;38739;53.324;6.862;2023-04-12T07:42:54;7.50;99.90
52867;DHT22;38739;53.324;6.862;2023-04-12T07:45:20;7.50;99.90
52867;DHT22;38739;53.324;6.862;2023-04-12T07:47:45;7.50;99.90
52867;DHT22;38739;53.324;6.862;2023-04-12T07:50:12;7.50;99.90
52867;DHT22;38739;53.324;6.862;2023-04-12T07:52:38;7.50;99.90
52867;DHT22;38739;53.324;6.862;2023-04-12T07:55:04;7.50;99.90
52867;DHT22;38739;53.324;6.862;2023-04-12T07:57:29;7.50;99.90
52867;DHT22;38739;53.324;6.862;2023-04-12T07:59:56;7.50;99.90
52867;DHT22;38739;53.324;6.862;2023-04-12T08:02:22;7.50;99.90
52867;DHT22;38739;53.324;6.862;2023-04-12T08:04:51;7.50;99.90
52867;DHT22;38739;53.324;6.862;2023-04-12T08:07:17;7.50;99.90
52867;DHT22;38739;53.324;6.862;2023-04-12T08:09:43;7.50;99.90
52867;DHT22;38739;53.324;6.862;2023-04-12T08:12:09;7.50;99.90
52867;DHT22;38739;53.324;6.862;2023-04-12T08:14:36;7.50;99.90
52867;DHT22;38739;53.324;6.862;2023-04-12T08:17:01;7.50;99.90
52867;DHT22;38739;53.324;6.862;2023-04-12T08:19:27;7.50;99.90
52867;DHT22;38739;53.324;6.862;2023-04-12T08:21:53;7.60;99.90
52867;DHT22;38739;53.324;6.862;2023-04-12T08:24:19;7.50;99.90
52867;DHT22;38739;53.324;6.862;2023-04-12T08:26:45;7.60;99.90
52867;DHT22;38739;53.324;6.862;2023-04-12T08:29:11;7.60;99.90
52867;DHT22;38739;53.324;6.862;2023-04-12T08:31:37;7.60;99.90
52867;DHT22;38739;53.324;6.862;2023-04-12T08:34:03;7.60;99.90
52867;DHT22;38739;53.324;6.862;2023-04-12T08:36:29;7.60;99.90
52867;DHT22;38739;53.324;6.862;2023-04-12T08:38:59;7.60;99.90
52867;DHT22;38739;53.324;6.862;2023-04-12T08:41:25;7.60;99.90
52867;DHT22;38739;53.324;6.862;2023-04-12T08:43:52;7.60;99.90
52867;DHT22;38739;53.324;6.862;2023-04-12T08:46:20;7.60;99.90
52867;DHT22;38739;53.324;6.862;2023-04-12T08:48:47;7.60;99.90
52867;DHT22;38739;53.324;6.862;2023-04-12T08:51:17;7.70;99.90
52867;DHT22;38739;53.324;6.862;2023-04-12T08:53:43;7.70;99.90
52867;DHT22;38739;53.324;6.862;2023-04-12T08:56:10;7.70;99.90
52867;DHT22;38739;53.324;6.862;2023-04-12T08:58:41;7.70;99.90
52867;DHT22;38739;53.324;6.862;2023-04-12T09:01:13;7.70;99.90
52867;DHT22;38739;53.324;6.862;2023-04-12T09:03:43;7.70;99.90
52867;DHT22;38739;53.324;6.862;2023-04-12T09:06:13;7.80;99.90
52867;DHT22;38739;53.324;6.862;2023-04-12T09:08:55;7.80;99.90
52867;DHT22;38739;53.324;6.862;2023-04-12T09:11:25;7.80;99.90
52867;DHT22;38739;53.324;6.862;2023-04-12T09:13:52;7.90;99.90
52867;DHT22;38739;53.324;6.862;2023-04-12T09:16:36;7.90;99.90
52867;DHT22;38739;53.324;6.862;2023-04-12T09:19:03;7.90;99.90
52867;DHT22;38739;53.324;6.862;2023-04-12T09:21:28;7.90;99.90
52867;DHT22;38739;53.324;6.862;2023-04-12T09:24:09;7.90;99.90
52867;DHT22;38739;53.324;6.862;2023-04-12T09:26:37;8.00;99.90
52867;DHT22;38739;53.324;6.862;2023-04-12T09:29:04;8.00;99.90
52867;DHT22;38739;53.324;6.862;2023-04-12T09:31:30;8.00;99.90
52867;DHT22;38739;53.324;6.862;2023-04-12T09:34:08;8.10;99.90
52867;DHT22;38739;53.324;6.862;2023-04-12T09:36:38;8.20;99.90
52867;DHT22;38739;53.324;6.862;2023-04-12T09:39:05;8.20;99.90
52867;DHT22;38739;53.324;6.862;2023-04-12T09:41:31;8.30;99.90
52867;DHT22;38739;53.324;6.862;2023-04-12T09:43:58;8.30;99.90
52867;DHT22;38739;53.324;6.862;2023-04-12T09:46:23;8.30;99.90
52867;DHT22;38739;53.324;6.862;2023-04-12T09:48:51;8.30;99.90
52867;DHT22;38739;53.324;6.862;2023-04-12T09:51:32;8.30;99.90
52867;DHT22;38739;53.324;6.862;2023-04-12T09:54:03;8.40;99.90
52867;DHT22;38739;53.324;6.862;2023-04-12T09:56:31;8.40;99.90
52867;DHT22;38739;53.324;6.862;2023-04-12T09:59:02;8.40;99.90
52867;DHT22;38739;53.324;6.862;2023-04-12T10:01:29;8.50;99.90
52867;DHT22;38739;53.324;6.862;2023-04-12T10:03:58;8.50;99.90
52867;DHT22;38739;53.324;6.862;2023-04-12T10:06:25;8.60;99.90
52867;DHT22;38739;53.324;6.862;2023-04-12T10:08:52;8.70;99.90
52867;DHT22;38739;53.324;6.862;2023-04-12T10:11:19;8.80;99.90
52867;DHT22;38739;53.324;6.862;2023-04-12T10:13:46;8.90;99.90
52867;DHT22;38739;53.324;6.862;2023-04-12T10:16:12;9.00;99.90
52867;DHT22;38739;53.324;6.862;2023-04-12T10:18:41;9.00;99.90
52867;DHT22;38739;53.324;6.862;2023-04-12T10:21:08;9.20;99.90
52867;DHT22;38739;53.324;6.862;2023-04-12T10:23:34;9.30;99.90
52867;DHT22;38739;53.324;6.862;2023-04-12T10:26:01;9.50;99.90
52867;DHT22;38739;53.324;6.862;2023-04-12T10:28:29;9.60;99.90
52867;DHT22;38739;53.324;6.862;2023-04-12T10:30:58;9.90;99.90
52867;DHT22;38739;53.324;6.862;2023-04-12T10:33:28;10.00;99.90
52867;DHT22;38739;53.324;6.862;2023-04-12T10:35:58;10.10;99.90
52867;DHT22;38739;53.324;6.862;2023-04-12T10:38:26;10.30;99.90
52867;DHT22;38739;53.324;6.862;2023-04-12T10:41:16;10.50;99.90
52867;DHT22;38739;53.324;6.862;2023-04-12T10:43:50;10.70;99.90
52867;DHT22;38739;53.324;6.862;2023-04-12T10:46:45;10.70;99.90
52867;DHT22;38739;53.324;6.862;2023-04-12T10:49:12;10.60;99.90
52867;DHT22;38739;53.324;6.862;2023-04-12T10:51:39;10.60;99.90
52867;DHT22;38739;53.324;6.862;2023-04-12T10:56:51;10.60;99.90
52867;DHT22;38739;53.324;6.862;2023-04-12T10:59:17;10.70;99.90
52867;DHT22;38739;53.324;6.862;2023-04-12T11:02:11;10.70;99.90
52867;DHT22;38739;53.324;6.862;2023-04-12T11:04:37;10.90;99.90
52867;DHT22;38739;53.324;6.862;2023-04-12T11:07:07;11.10;99.90
52867;DHT22;38739;53.324;6.862;2023-04-12T11:14:35;11.90;99.90
52867;DHT22;38739;53.324;6.862;2023-04-12T11:19:34;12.60;99.90
52867;DHT22;38739;53.324;6.862;2023-04-12T11:22:05;12.80;99.90
52867;DHT22;38739;53.324;6.862;2023-04-12T11:24:32;13.30;99.90
52867;DHT22;38739;53.324;6.862;2023-04-12T11:26:58;13.30;99.90
52867;DHT22;38739;53.324;6.862;2023-04-12T11:29:28;13.20;99.90
52867;DHT22;38739;53.324;6.862;2023-04-12T11:31:57;13.00;99.90
52867;DHT22;38739;53.324;6.862;2023-04-12T11:34:23;12.90;99.90
52867;DHT22;38739;53.324;6.862;2023-04-12T11:36:53;13.00;99.90
52867;DHT22;38739;53.324;6.862;2023-04-12T11:39:19;13.60;99.90
52867;DHT22;38739;53.324;6.862;2023-04-12T11:41:49;13.80;99.90
52867;DHT22;38739;53.324;6.862;2023-04-12T11:44:15;14.40;99.90
52867;DHT22;38739;53.324;6.862;2023-04-12T11:46:44;14.90;99.90
52867;DHT22;38739;53.324;6.862;2023-04-12T11:49:17;15.40;99.90
52867;DHT22;38739;53.324;6.862;2023-04-12T11:51:43;15.50;99.90
52867;DHT22;38739;53.324;6.862;2023-04-12T11:54:10;15.40;99.90
52867;DHT22;38739;53.324;6.862;2023-04-12T11:56:36;15.60;99.90
52867;DHT22;38739;53.324;6.862;2023-04-12T11:59:02;15.90;99.90
52867;DHT22;38739;53.324;6.862;2023-04-12T12:01:28;16.50;99.90
52867;DHT22;38739;53.324;6.862;2023-04-12T12:03:54;16.50;99.90
52867;DHT22;38739;53.324;6.862;2023-04-12T12:06:22;16.10;99.90
52867;DHT22;38739;53.324;6.862;2023-04-12T12:08:52;15.70;99.90
52867;DHT22;38739;53.324;6.862;2023-04-12T12:11:22;15.50;99.90
52867;DHT22;38739;53.324;6.862;2023-04-12T12:13:55;15.30;99.90
52867;DHT22;38739;53.324;6.862;2023-04-12T12:16:26;15.30;99.90
52867;DHT22;38739;53.324;6.862;2023-04-12T12:18:56;15.00;99.90
52867;DHT22;38739;53.324;6.862;2023-04-12T12:21:22;14.80;99.90
52867;DHT22;38739;53.324;6.862;2023-04-12T12:23:48;14.40;99.90
52867;DHT22;38739;53.324;6.862;2023-04-12T12:26:24;14.30;99.90
52867;DHT22;38739;53.324;6.862;2023-04-12T12:28:56;14.20;99.90
52867;DHT22;38739;53.324;6.862;2023-04-12T12:31:23;14.00;99.90
52867;DHT22;38739;53.324;6.862;2023-04-12T12:33:56;13.90;99.90
52867;DHT22;38739;53.324;6.862;2023-04-12T12:36:35;13.90;99.90
52867;DHT22;38739;53.324;6.862;2023-04-12T12:39:07;13.80;99.90
52867;DHT22;38739;53.324;6.862;2023-04-12T12:41:35;13.60;99.90
52867;DHT22;38739;53.324;6.862;2023-04-12T12:44:02;13.50;99.90
52867;DHT22;38739;53.324;6.862;2023-04-12T12:46:28;13.40;99.90
52867;DHT22;38739;53.324;6.862;2023-04-12T12:48:54;13.40;99.90
52867;DHT22;38739;53.324;6.862;2023-04-12T12:51:20;13.30;99.90
52867;DHT22;38739;53.324;6.862;2023-04-12T12:53:46;13.20;99.90
52867;DHT22;38739;53.324;6.862;2023-04-12T12:56:13;13.10;99.90
52867;DHT22;38739;53.324;6.862;2023-04-12T12:58:40;12.90;99.90
52867;DHT22;38739;53.324;6.862;2023-04-12T13:01:06;12.80;99.90
52867;DHT22;38739;53.324;6.862;2023-04-12T13:03:32;12.70;99.90
52867;DHT22;38739;53.324;6.862;2023-04-12T13:05:58;12.70;99.90
52867;DHT22;38739;53.324;6.862;2023-04-12T13:08:25;12.70;99.90
52867;DHT22;38739;53.324;6.862;2023-04-12T13:10:51;12.70;99.90
52867;DHT22;38739;53.324;6.862;2023-04-12T13:13:17;12.70;99.90
52867;DHT22;38739;53.324;6.862;2023-04-12T13:15:43;12.70;99.90
52867;DHT22;38739;53.324;6.862;2023-04-12T13:18:11;12.70;99.90
52867;DHT22;38739;53.324;6.862;2023-04-12T13:20:40;12.70;99.90
52867;DHT22;38739;53.324;6.862;2023-04-12T13:23:06;12.70;99.90
52867;DHT22;38739;53.324;6.862;2023-04-12T13:25:31;12.60;99.90
52867;DHT22;38739;53.324;6.862;2023-04-12T13:27:57;12.80;99.90
52867;DHT22;38739;53.324;6.862;2023-04-12T13:30:23;13.30;99.90
52867;DHT22;38739;53.324;6.862;2023-04-12T13:32:48;14.10;99.90
52867;DHT22;38739;53.324;6.862;2023-04-12T13:35:14;14.90;99.90
52867;DHT22;38739;53.324;6.862;2023-04-12T13:37:40;15.60;99.90
52867;DHT22;38739;53.324;6.862;2023-04-12T13:40:07;16.10;99.90
52867;DHT22;38739;53.324;6.862;2023-04-12T13:42:32;16.20;99.90
52867;DHT22;38739;53.324;6.862;2023-04-12T13:44:59;16.60;99.90
52867;DHT22;38739;53.324;6.862;2023-04-12T13:47:26;16.40;99.90
52867;DHT22;38739;53.324;6.862;2023-04-12T13:49:52;16.30;99.90
52867;DHT22;38739;53.324;6.862;2023-04-12T13:52:19;16.00;99.90
52867;DHT22;38739;53.324;6.862;2023-04-12T13:54:45;15.80;99.90
52867;DHT22;38739;53.324;6.862;2023-04-12T13:57:10;16.20;99.90
52867;DHT22;38739;53.324;6.862;2023-04-12T13:59:36;16.20;99.90
52867;DHT22;38739;53.324;6.862;2023-04-12T14:02:02;16.80;99.90
52867;DHT22;38739;53.324;6.862;2023-04-12T14:04:28;17.30;99.90
52867;DHT22;38739;53.324;6.862;2023-04-12T14:06:55;17.50;99.90
52867;DHT22;38739;53.324;6.862;2023-04-12T14:09:22;17.50;99.90
52867;DHT22;38739;53.324;6.862;2023-04-12T14:11:50;17.20;99.90
52867;DHT22;38739;53.324;6.862;2023-04-12T14:14:15;17.20;99.90
52867;DHT22;38739;53.324;6.862;2023-04-12T14:16:41;17.10;99.90
52867;DHT22;38739;53.324;6.862;2023-04-12T14:19:07;17.10;99.90
52867;DHT22;38739;53.324;6.862;2023-04-12T14:21:33;17.20;99.90
52867;DHT22;38739;53.324;6.862;2023-04-12T14:23:59;16.90;99.90
52867;DHT22;38739;53.324;6.862;2023-04-12T14:26:24;16.60;99.90
52867;DHT22;38739;53.324;6.862;2023-04-12T14:28:50;16.20;99.90
52867;DHT22;38739;53.324;6.862;2023-04-12T14:31:16;15.90;99.90
52867;DHT22;38739;53.324;6.862;2023-04-12T14:33:42;15.70;99.90
52867;DHT22;38739;53.324;6.862;2023-04-12T14:36:08;15.80;99.90
52867;DHT22;38739;53.324;6.862;2023-04-12T14:38:33;15.70;99.90
52867;DHT22;38739;53.324;6.862;2023-04-12T14:41:00;15.50;99.90
52867;DHT22;38739;53.324;6.862;2023-04-12T14:43:26;15.30;99.90
52867;DHT22;38739;53.324;6.862;2023-04-12T14:45:52;15.30;99.90
52867;DHT22;38739;53.324;6.862;2023-04-12T14:48:19;15.00;99.90
52867;DHT22;38739;53.324;6.862;2023-04-12T14:50:45;14.80;99.90
52867;DHT22;38739;53.324;6.862;2023-04-12T14:53:11;14.60;99.90
52867;DHT22;38739;53.324;6.862;2023-04-12T14:55:38;14.40;99.90
52867;DHT22;38739;53.324;6.862;2023-04-12T14:58:04;14.30;99.90
52867;DHT22;38739;53.324;6.862;2023-04-12T15:00:32;14.10;99.90
52867;DHT22;38739;53.324;6.862;2023-04-12T15:02:58;14.10;99.90
52867;DHT22;38739;53.324;6.862;2023-04-12T15:05:25;13.80;99.90
52867;DHT22;38739;53.324;6.862;2023-04-12T15:07:52;13.70;99.90
52867;DHT22;38739;53.324;6.862;2023-04-12T15:10:19;13.50;99.90
52867;DHT22;38739;53.324;6.862;2023-04-12T15:12:45;13.60;99.90
52867;DHT22;38739;53.324;6.862;2023-04-12T15:15:12;13.60;99.90
52867;DHT22;38739;53.324;6.862;2023-04-12T15:17:37;13.60;99.90
52867;DHT22;38739;53.324;6.862;2023-04-12T15:20:04;13.30;99.90
52867;DHT22;38739;53.324;6.862;2023-04-12T15:22:42;13.20;99.90
52867;DHT22;38739;53.324;6.862;2023-04-12T15:25:09;13.10;99.90
52867;DHT22;38739;53.324;6.862;2023-04-12T15:27:35;13.10;99.90
52867;DHT22;38739;53.324;6.862;2023-04-12T15:30:03;13.10;99.90
52867;DHT22;38739;53.324;6.862;2023-04-12T15:32:30;13.10;99.90
52867;DHT22;38739;53.324;6.862;2023-04-12T15:35:02;13.50;99.90
52867;DHT22;38739;53.324;6.862;2023-04-12T15:37:31;14.30;99.90
52867;DHT22;38739;53.324;6.862;2023-04-12T15:39:59;14.70;99.90
52867;DHT22;38739;53.324;6.862;2023-04-12T15:42:25;15.00;99.90
52867;DHT22;38739;53.324;6.862;2023-04-12T15:44:51;15.20;99.90
52867;DHT22;38739;53.324;6.862;2023-04-12T15:47:17;15.40;99.90
52867;DHT22;38739;53.324;6.862;2023-04-12T15:49:42;15.50;99.90
52867;DHT22;38739;53.324;6.862;2023-04-12T15:52:08;15.60;99.90
52867;DHT22;38739;53.324;6.862;2023-04-12T15:54:34;15.50;99.90
52867;DHT22;38739;53.324;6.862;2023-04-12T15:57:06;15.60;99.90
52867;DHT22;38739;53.324;6.862;2023-04-12T15:59:36;15.30;99.90
52867;DHT22;38739;53.324;6.862;2023-04-12T16:02:03;15.00;99.90
52867;DHT22;38739;53.324;6.862;2023-04-12T16:04:31;14.70;99.90
52867;DHT22;38739;53.324;6.862;2023-04-12T16:06:57;14.40;99.90